createdAt,value
2023-01-13T00:02:20.463Z,27.19
2023-01-13T00:04:50.963Z,27.14
2023-01-13T00:07:21.726Z,27.22
2023-01-13T00:09:53.128Z,27.26
2023-01-13T00:12:23.712Z,27.25
2023-01-13T00:14:54.358Z,27.26
2023-01-13T00:17:24.965Z,27.28
2023-01-13T00:19:56.067Z,27.35
2023-01-13T00:22:26.540Z,27.42
2023-01-13T00:24:59.165Z,27.51
2023-01-13T00:27:30.567Z,27.57
2023-01-13T00:30:01.479Z,27.65
2023-01-13T00:32:35.050Z,27.76
2023-01-13T00:35:06.355Z,27.76
2023-01-13T00:37:40.226Z,27.89
2023-01-13T00:40:11.562Z,27.97
2023-01-13T00:43:00.556Z,28.07
2023-01-13T00:45:31.244Z,28.11
2023-01-13T00:48:01.542Z,28.17
2023-01-13T00:50:32.411Z,28.24
2023-01-13T00:53:03.470Z,28.23
2023-01-13T00:55:37.014Z,28.32
2023-01-13T00:58:07.530Z,28.34
2023-01-13T01:00:38.081Z,28.34
2023-01-13T01:03:15.646Z,28.38
2023-01-13T01:05:45.976Z,28.41
2023-01-13T01:08:16.451Z,28.49
2023-01-13T01:10:47.038Z,28.53
2023-01-13T01:13:18.347Z,28.55
2023-01-13T01:15:49.174Z,28.65
2023-01-13T01:18:19.833Z,28.73
2023-01-13T01:20:52.870Z,28.79
2023-01-13T01:23:23.610Z,28.80
2023-01-13T01:25:53.947Z,28.82
2023-01-13T01:28:24.386Z,28.81
2023-01-13T01:30:56.348Z,28.81
2023-01-13T01:33:30.508Z,28.82
2023-01-13T01:36:02.701Z,28.88
2023-01-13T01:38:35.346Z,28.90
2023-01-13T01:41:06.788Z,28.91
2023-01-13T01:44:01.173Z,28.97
2023-01-13T01:46:34.811Z,28.97
2023-01-13T01:49:17.086Z,29.00
2023-01-13T01:52:08.557Z,29.03
2023-01-13T01:54:39.412Z,29.09
2023-01-13T01:57:13.374Z,29.09
2023-01-13T01:59:44.188Z,29.12
2023-01-13T02:02:14.919Z,29.15
2023-01-13T02:04:51.844Z,29.20
2023-01-13T02:07:28.087Z,29.22
2023-01-13T02:10:00.772Z,29.21
2023-01-13T02:12:32.829Z,29.29
2023-01-13T02:15:09.399Z,29.36
2023-01-13T02:18:10.156Z,29.38
2023-01-13T02:21:00.306Z,29.45
2023-01-13T02:24:42.778Z,29.48
2023-01-13T02:27:50.865Z,29.51
2023-01-13T02:30:48.037Z,29.48
2023-01-13T02:34:01.105Z,29.48
2023-01-13T02:36:50.197Z,29.55
2023-01-13T02:40:07.853Z,29.61
2023-01-13T02:43:15.545Z,29.65
2023-01-13T02:46:00.651Z,29.67
2023-01-13T02:48:33.125Z,29.68
2023-01-13T02:51:11.628Z,29.71
2023-01-13T02:53:48.622Z,29.76
2023-01-13T02:56:19.695Z,29.81
2023-01-13T02:58:53.361Z,29.83
2023-01-13T03:01:24.351Z,29.85
2023-01-13T03:03:55.102Z,29.83
2023-01-13T03:06:31.775Z,29.87
2023-01-13T03:09:23.074Z,29.93
2023-01-13T03:12:04.930Z,29.90
2023-01-13T03:14:42.522Z,29.95
2023-01-13T03:18:03.888Z,29.95
2023-01-13T03:20:56.332Z,29.99
2023-01-13T03:23:36.388Z,29.94
2023-01-13T03:26:22.303Z,30.00
2023-01-13T03:29:10.042Z,30.05
2023-01-13T03:31:47.285Z,30.06
2023-01-13T03:34:22.928Z,30.10
2023-01-13T03:36:55.468Z,30.14
2023-01-13T03:39:32.715Z,30.16
2023-01-13T03:42:10.716Z,30.17
2023-01-13T03:44:49.529Z,30.16
2023-01-13T03:47:35.174Z,30.11
2023-01-13T03:50:14.205Z,30.05
2023-01-13T03:52:51.772Z,30.10
2023-01-13T03:55:31.129Z,30.17
2023-01-13T03:58:31.869Z,30.25
2023-01-13T04:01:27.391Z,30.20
2023-01-13T04:04:18.585Z,30.22
2023-01-13T04:07:08.922Z,30.25
2023-01-13T04:09:56.312Z,30.24
2023-01-13T04:13:03.964Z,30.18
2023-01-13T04:15:41.372Z,30.28
2023-01-13T04:18:19.638Z,30.34
2023-01-13T04:20:52.151Z,30.30
2023-01-13T04:23:23.821Z,30.33
2023-01-13T04:25:54.453Z,30.35
2023-01-13T04:28:25.966Z,30.43
2023-01-13T04:30:56.802Z,30.45
2023-01-13T04:33:27.881Z,30.45
2023-01-13T04:35:58.668Z,30.49
2023-01-13T04:38:29.218Z,30.49
2023-01-13T04:40:59.716Z,30.55
2023-01-13T04:43:30.188Z,30.60
2023-01-13T04:46:00.633Z,30.65
2023-01-13T04:48:31.126Z,30.64
2023-01-13T04:51:02.039Z,30.66
2023-01-13T04:53:32.632Z,30.72
2023-01-13T04:56:03.672Z,30.76
2023-01-13T04:58:37.250Z,30.81
2023-01-13T05:01:07.906Z,30.89
2023-01-13T05:03:39.096Z,30.91
2023-01-13T05:06:09.840Z,30.89
2023-01-13T05:08:40.431Z,30.99
2023-01-13T05:11:29.819Z,31.07
2023-01-13T05:14:42.327Z,31.14
2023-01-13T05:17:20.564Z,31.16
2023-01-13T05:19:50.980Z,31.21
2023-01-13T05:22:39.681Z,31.18
2023-01-13T05:25:22.850Z,31.18
2023-01-13T05:28:00.994Z,31.17
2023-01-13T05:30:34.247Z,31.16
2023-01-13T05:33:05.258Z,31.18
2023-01-13T05:35:38.953Z,31.13
2023-01-13T05:38:10.784Z,31.16
2023-01-13T05:41:00.545Z,31.16
2023-01-13T05:43:31.315Z,31.18
2023-01-13T05:46:04.303Z,31.17
2023-01-13T05:48:37.431Z,31.19
2023-01-13T05:51:10.532Z,31.16
2023-01-13T05:53:43.656Z,31.14
2023-01-13T05:56:14.491Z,31.14
2023-01-13T05:58:45.730Z,31.10
2023-01-13T06:01:16.441Z,31.14
2023-01-13T06:03:46.806Z,31.15
2023-01-13T06:06:17.469Z,31.15
2023-01-13T06:08:48.201Z,31.13
2023-01-13T06:11:18.859Z,31.16
2023-01-13T06:13:49.501Z,31.19
2023-01-13T06:16:23.184Z,31.21
2023-01-13T06:18:55.592Z,31.26
2023-01-13T06:21:26.982Z,31.26
2023-01-13T06:23:58.141Z,31.20
2023-01-13T06:26:30.649Z,31.15
2023-01-13T06:29:01.360Z,31.13
2023-01-13T06:31:32.619Z,31.10
2023-01-13T06:34:13.537Z,31.02
2023-01-13T06:36:47.753Z,31.06
2023-01-13T06:39:20.287Z,31.15
2023-01-13T06:42:10.798Z,31.29
2023-01-13T06:44:41.632Z,31.50
2023-01-13T06:47:12.329Z,31.54
2023-01-13T06:49:45.542Z,31.65
2023-01-13T06:52:24.627Z,31.63
2023-01-13T06:54:55.727Z,31.56
2023-01-13T06:57:27.733Z,31.51
2023-01-13T06:59:58.420Z,31.49
2023-01-13T07:02:29.390Z,31.46
2023-01-13T07:05:00.196Z,31.42
2023-01-13T07:07:30.708Z,31.40
2023-01-13T07:10:03.069Z,31.41
2023-01-13T07:12:53.177Z,31.41
2023-01-13T07:15:23.858Z,31.39
2023-01-13T07:17:54.589Z,31.35
2023-01-13T07:20:25.708Z,31.35
2023-01-13T07:22:56.648Z,31.32
2023-01-13T07:25:27.620Z,31.28
2023-01-13T07:27:59.497Z,31.24
2023-01-13T07:30:30.084Z,31.22
2023-01-13T07:33:00.469Z,31.17
2023-01-13T07:35:31.713Z,31.15
2023-01-13T07:38:02.242Z,31.16
2023-01-13T07:40:32.653Z,31.12
2023-01-13T07:43:21.679Z,31.07
2023-01-13T07:45:59.394Z,31.03
2023-01-13T07:48:30.520Z,30.98
2023-01-13T07:51:10.604Z,30.94
2023-01-13T07:53:41.870Z,30.95
2023-01-13T07:56:12.297Z,30.90
2023-01-13T07:58:43.304Z,30.87
2023-01-13T08:01:15.879Z,30.89
2023-01-13T08:03:46.630Z,30.88
2023-01-13T08:06:17.520Z,30.86
2023-01-13T08:08:48.411Z,30.81
2023-01-13T08:11:21.520Z,30.79
2023-01-13T08:13:58.668Z,30.75
2023-01-13T08:16:29.792Z,30.77
2023-01-13T08:19:00.324Z,30.76
2023-01-13T08:21:30.899Z,30.73
2023-01-13T08:24:01.480Z,30.72
2023-01-13T08:26:32.044Z,30.71
2023-01-13T08:29:02.936Z,30.67
2023-01-13T08:31:33.246Z,30.67
2023-01-13T08:34:03.925Z,30.66
2023-01-13T08:36:35.398Z,30.66
2023-01-13T08:39:15.994Z,30.73
2023-01-13T08:42:01.355Z,30.72
2023-01-13T08:44:34.869Z,30.70
2023-01-13T08:47:05.829Z,30.71
2023-01-13T08:49:36.509Z,30.70
2023-01-13T08:52:07.213Z,30.68
2023-01-13T08:54:43.311Z,30.64
2023-01-13T08:57:14.755Z,30.64
2023-01-13T08:59:48.222Z,30.61
2023-01-13T09:02:21.450Z,30.60
2023-01-13T09:04:52.638Z,30.62
2023-01-13T09:07:24.451Z,30.58
2023-01-13T09:09:57.164Z,30.61
2023-01-13T09:12:46.313Z,30.59
2023-01-13T09:15:19.516Z,30.42
2023-01-13T09:17:49.905Z,30.55
2023-01-13T09:20:20.904Z,30.56
2023-01-13T09:22:51.376Z,30.58
2023-01-13T09:25:21.696Z,30.56
2023-01-13T09:27:52.581Z,30.54
2023-01-13T09:30:23.138Z,30.49
2023-01-13T09:33:13.715Z,30.50
2023-01-13T09:35:44.364Z,30.53
2023-01-13T09:38:16.142Z,30.54
2023-01-13T09:40:50.443Z,30.52
2023-01-13T09:43:52.171Z,30.51
2023-01-13T09:46:50.407Z,30.49
2023-01-13T09:49:41.868Z,30.44
2023-01-13T09:52:20.243Z,30.42
2023-01-13T09:54:53.820Z,30.38
2023-01-13T09:57:26.554Z,30.43
2023-01-13T09:59:59.616Z,30.42
2023-01-13T10:02:35.607Z,30.40
2023-01-13T10:05:11.763Z,30.35
2023-01-13T10:07:58.788Z,30.40
2023-01-13T10:10:38.456Z,30.38
2023-01-13T10:13:32.726Z,30.42
2023-01-13T10:16:12.095Z,30.32
2023-01-13T10:19:05.271Z,30.27
2023-01-13T10:21:54.657Z,30.04
2023-01-13T10:24:59.905Z,30.13
2023-01-13T10:27:41.097Z,30.05
2023-01-13T10:30:32.378Z,30.08
2023-01-13T10:33:14.912Z,29.98
2023-01-13T10:36:01.486Z,29.97
2023-01-13T10:38:46.453Z,30.00
2023-01-13T10:41:20.984Z,29.99
2023-01-13T10:43:55.844Z,29.92
2023-01-13T10:46:27.414Z,30.01
2023-01-13T10:49:07.836Z,30.01
2023-01-13T10:51:41.632Z,29.92
2023-01-13T10:54:15.218Z,29.87
2023-01-13T10:56:46.549Z,29.80
2023-01-13T10:59:25.721Z,29.78
2023-01-13T11:02:19.857Z,29.79
2023-01-13T11:04:55.866Z,29.74
2023-01-13T11:07:36.582Z,29.79
2023-01-13T11:10:28.108Z,29.76
2023-01-13T11:13:27.945Z,29.79
2023-01-13T11:16:17.605Z,29.65
2023-01-13T11:19:12.644Z,29.65
2023-01-13T11:21:45.340Z,29.69
2023-01-13T11:24:22.979Z,29.67
2023-01-13T11:26:58.460Z,29.70
2023-01-13T11:29:40.624Z,29.60
2023-01-13T11:32:14.724Z,29.70
2023-01-13T11:34:48.602Z,29.80
2023-01-13T11:37:29.444Z,29.76
2023-01-13T11:40:06.525Z,29.84
2023-01-13T11:42:48.029Z,29.84
2023-01-13T11:45:33.706Z,29.85
2023-01-13T11:48:04.614Z,29.80
2023-01-13T11:50:41.258Z,29.79
2023-01-13T11:53:26.614Z,29.76
2023-01-13T11:56:27.347Z,29.76
2023-01-13T11:59:40.059Z,29.75
2023-01-13T12:02:42.048Z,29.35
2023-01-13T12:05:30.791Z,29.27
2023-01-13T12:08:08.985Z,29.20
2023-01-13T12:10:52.369Z,29.22
2023-01-13T12:13:37.856Z,29.19
2023-01-13T12:16:27.822Z,29.20
2023-01-13T12:19:08.507Z,29.18
2023-01-13T12:21:41.885Z,29.15
2023-01-13T12:24:40.789Z,29.14
2023-01-13T12:27:15.830Z,29.11
2023-01-13T12:29:48.014Z,29.09
2023-01-13T12:32:22.141Z,29.08
2023-01-13T12:35:25.931Z,29.09
2023-01-13T12:38:12.481Z,29.11
2023-01-13T12:40:47.978Z,29.10
2023-01-13T12:43:40.432Z,29.09
2023-01-13T12:46:23.500Z,29.11
2023-01-13T12:49:11.603Z,29.09
2023-01-13T12:51:53.768Z,29.12
2023-01-13T12:54:44.550Z,29.13
2023-01-13T12:57:18.268Z,29.11
2023-01-13T13:00:07.023Z,29.13
2023-01-13T13:03:05.300Z,29.11
2023-01-13T13:05:50.237Z,29.11
2023-01-13T13:08:24.561Z,29.10
2023-01-13T13:11:04.437Z,29.10
2023-01-13T13:13:47.540Z,29.10
2023-01-13T13:16:30.907Z,29.09
2023-01-13T13:19:19.670Z,29.10
2023-01-13T13:22:18.958Z,29.09
2023-01-13T13:24:58.555Z,29.06
2023-01-13T13:27:51.655Z,29.03
2023-01-13T13:30:32.645Z,28.98
2023-01-13T13:34:00.398Z,28.96
2023-01-13T13:36:44.369Z,28.90
2023-01-13T13:39:37.551Z,28.87
2023-01-13T13:42:37.841Z,28.90
2023-01-13T13:45:44.413Z,29.25
2023-01-13T13:48:28.009Z,29.35
2023-01-13T13:51:05.041Z,29.39
2023-01-13T13:53:38.135Z,29.41
2023-01-13T13:56:21.784Z,29.43
2023-01-13T13:58:53.268Z,29.41
2023-01-13T14:01:40.062Z,29.42
2023-01-13T14:04:23.773Z,29.37
2023-01-13T14:06:56.760Z,29.32
2023-01-13T14:09:29.729Z,29.35
2023-01-13T14:12:04.172Z,29.32
2023-01-13T14:14:34.682Z,29.31
2023-01-13T14:17:06.589Z,29.28
2023-01-13T14:19:41.236Z,29.28
2023-01-13T14:22:17.249Z,29.28
2023-01-13T14:24:50.256Z,29.27
2023-01-13T14:27:21.094Z,29.26
2023-01-13T14:29:59.164Z,29.24
2023-01-13T14:32:37.552Z,29.27
2023-01-13T14:35:09.160Z,29.27
2023-01-13T14:37:44.105Z,29.23
2023-01-13T14:40:45.322Z,29.25
2023-01-13T14:43:19.647Z,29.21
2023-01-13T14:46:04.619Z,29.21
2023-01-13T14:48:40.418Z,29.19
2023-01-13T14:51:13.670Z,29.19
2023-01-13T14:53:49.418Z,29.18
2023-01-13T14:56:41.201Z,29.19
2023-01-13T14:59:45.899Z,29.16
2023-01-13T15:02:31.019Z,29.15
2023-01-13T15:05:24.566Z,29.22
2023-01-13T15:08:02.612Z,29.12
2023-01-13T15:10:39.109Z,29.10
2023-01-13T15:13:24.070Z,29.12
2023-01-13T15:16:01.735Z,29.07
2023-01-13T15:18:32.685Z,29.07
2023-01-13T15:21:06.423Z,29.12
2023-01-13T15:23:39.590Z,29.15
2023-01-13T15:26:21.744Z,29.20
2023-01-13T15:28:53.379Z,29.18
2023-01-13T15:31:24.367Z,29.20
2023-01-13T15:33:55.648Z,29.18
2023-01-13T15:36:32.017Z,29.13
2023-01-13T15:39:03.186Z,29.13
2023-01-13T15:41:51.701Z,29.09
2023-01-13T15:44:40.115Z,29.06
2023-01-13T15:47:10.926Z,28.92
2023-01-13T15:49:48.676Z,28.85
2023-01-13T15:52:28.960Z,28.84
2023-01-13T15:54:59.818Z,28.74
2023-01-13T15:57:34.432Z,28.75
2023-01-13T16:00:17.004Z,28.76
2023-01-13T16:02:47.720Z,28.73
2023-01-13T16:05:18.349Z,28.67
2023-01-13T16:07:49.425Z,28.68
2023-01-13T16:10:26.733Z,28.67
2023-01-13T16:12:57.869Z,28.66
2023-01-13T16:15:28.836Z,28.65
2023-01-13T16:18:01.256Z,28.62
2023-01-13T16:20:32.486Z,28.64
2023-01-13T16:23:02.811Z,28.61
2023-01-13T16:25:34.060Z,28.55
2023-01-13T16:28:05.003Z,28.61
2023-01-13T16:30:37.940Z,28.59
2023-01-13T16:33:08.944Z,28.56
2023-01-13T16:35:44.008Z,28.53
2023-01-13T16:38:30.405Z,28.54
2023-01-13T16:41:01.176Z,28.51
2023-01-13T16:43:32.306Z,28.54
2023-01-13T16:46:03.008Z,28.48
2023-01-13T16:48:33.389Z,28.47
2023-01-13T16:51:05.198Z,28.48
2023-01-13T16:53:35.572Z,28.45
2023-01-13T16:56:24.913Z,28.43
2023-01-13T16:58:57.001Z,28.43
2023-01-13T17:01:30.544Z,28.40
2023-01-13T17:04:01.557Z,28.41
2023-01-13T17:06:32.337Z,28.44
2023-01-13T17:09:12.707Z,28.41
2023-01-13T17:11:43.634Z,28.38
2023-01-13T17:14:17.336Z,28.36
2023-01-13T17:16:50.196Z,28.38
2023-01-13T17:19:21.459Z,28.39
2023-01-13T17:21:54.852Z,28.37
2023-01-13T17:24:26.758Z,28.38
2023-01-13T17:26:58.401Z,28.39
2023-01-13T17:29:31.076Z,28.37
2023-01-13T17:32:04.650Z,28.34
2023-01-13T17:34:35.713Z,28.34
2023-01-13T17:37:06.812Z,28.32
2023-01-13T17:39:37.105Z,28.30
2023-01-13T17:42:07.456Z,28.29
2023-01-13T17:44:38.724Z,28.25
2023-01-13T17:47:09.516Z,28.22
2023-01-13T17:49:40.408Z,28.21
2023-01-13T17:52:11.231Z,28.18
2023-01-13T17:54:44.006Z,28.18
2023-01-13T17:57:14.713Z,28.17
2023-01-13T17:59:45.100Z,28.15
2023-01-13T18:02:15.996Z,28.15
2023-01-13T18:04:46.644Z,28.13
2023-01-13T18:07:17.252Z,28.10
2023-01-13T18:09:47.925Z,28.09
2023-01-13T18:12:19.200Z,28.09
2023-01-13T18:14:49.526Z,28.06
2023-01-13T18:17:20.605Z,28.08
2023-01-13T18:20:09.208Z,28.04
2023-01-13T18:23:00.592Z,28.02
2023-01-13T18:25:50.164Z,27.98
2023-01-13T18:28:21.393Z,27.97
2023-01-13T18:30:51.980Z,27.94
2023-01-13T18:33:22.740Z,27.94
2023-01-13T18:35:53.151Z,27.91
2023-01-13T18:38:24.942Z,27.92
2023-01-13T18:40:55.468Z,27.92
2023-01-13T18:43:26.234Z,27.91
2023-01-13T18:45:59.695Z,27.91
2023-01-13T18:48:32.333Z,27.90
2023-01-13T18:51:02.921Z,27.88
2023-01-13T18:53:33.449Z,27.86
2023-01-13T18:56:06.485Z,27.89
2023-01-13T18:58:37.058Z,27.88
2023-01-13T19:01:07.879Z,27.88
2023-01-13T19:03:38.305Z,27.88
2023-01-13T19:06:14.828Z,27.83
2023-01-13T19:08:45.814Z,27.82
2023-01-13T19:11:16.591Z,27.85
2023-01-13T19:13:56.459Z,27.85
2023-01-13T19:16:27.163Z,27.83
2023-01-13T19:18:57.404Z,27.79
2023-01-13T19:21:28.105Z,27.80
2023-01-13T19:23:59.339Z,27.80
2023-01-13T19:26:30.589Z,27.76
2023-01-13T19:29:01.142Z,27.78
2023-01-13T19:31:31.720Z,27.78
2023-01-13T19:34:02.413Z,27.78
2023-01-13T19:36:32.948Z,27.80
2023-01-13T19:39:03.496Z,27.77
2023-01-13T19:41:52.491Z,27.76
2023-01-13T19:44:41.423Z,27.75
2023-01-13T19:47:12.030Z,27.75
2023-01-13T19:49:42.666Z,27.75
2023-01-13T19:52:13.506Z,27.74
2023-01-13T19:54:46.939Z,27.73
2023-01-13T19:57:17.306Z,27.71
2023-01-13T19:59:47.673Z,27.69
2023-01-13T20:02:32.442Z,27.66
2023-01-13T20:05:06.643Z,27.65
2023-01-13T20:07:37.330Z,27.66
2023-01-13T20:10:08.618Z,27.64
2023-01-13T20:12:41.378Z,27.64
2023-01-13T20:15:12.077Z,27.58
2023-01-13T20:17:44.745Z,27.61
2023-01-13T20:20:16.731Z,27.63
2023-01-13T20:22:47.370Z,27.60
2023-01-13T20:25:21.376Z,27.57
2023-01-13T20:27:52.090Z,27.57
2023-01-13T20:30:23.739Z,27.56
2023-01-13T20:32:54.513Z,27.51
2023-01-13T20:35:28.593Z,27.50
2023-01-13T20:37:59.614Z,27.50
2023-01-13T20:40:30.715Z,27.50
2023-01-13T20:43:01.143Z,27.49
2023-01-13T20:45:31.505Z,27.46
2023-01-13T20:48:02.717Z,27.45
2023-01-13T20:50:33.497Z,27.46
2023-01-13T20:53:04.852Z,27.44
2023-01-13T20:55:35.556Z,27.45
2023-01-13T20:58:09.621Z,27.43
2023-01-13T21:00:46.427Z,27.42
2023-01-13T21:03:17.095Z,27.41
2023-01-13T21:05:47.832Z,27.39
2023-01-13T21:08:18.757Z,27.39
2023-01-13T21:10:49.440Z,27.38
2023-01-13T21:13:44.179Z,27.37
2023-01-13T21:16:14.762Z,27.34
2023-01-13T21:19:03.602Z,27.36
2023-01-13T21:21:34.422Z,27.34
2023-01-13T21:24:05.579Z,27.34
2023-01-13T21:26:36.355Z,27.35
2023-01-13T21:29:07.828Z,27.32
2023-01-13T21:31:39.723Z,27.29
2023-01-13T21:34:11.677Z,27.30
2023-01-13T21:36:42.161Z,27.28
2023-01-13T21:39:15.095Z,27.31
2023-01-13T21:42:04.043Z,27.25
2023-01-13T21:44:52.541Z,27.26
2023-01-13T21:47:41.831Z,27.25
2023-01-13T21:50:20.106Z,27.25
2023-01-13T21:52:53.344Z,27.19
2023-01-13T21:55:25.911Z,27.18
2023-01-13T21:58:12.400Z,27.17
2023-01-13T22:00:46.565Z,27.22
2023-01-13T22:03:20.052Z,27.19
2023-01-13T22:05:57.634Z,27.17
2023-01-13T22:08:30.445Z,27.17
2023-01-13T22:11:04.185Z,27.19
2023-01-13T22:13:53.249Z,27.17
2023-01-13T22:16:26.696Z,27.20
2023-01-13T22:19:02.643Z,27.21
2023-01-13T22:21:33.413Z,27.20
2023-01-13T22:24:06.024Z,27.22
2023-01-13T22:26:39.532Z,27.23
2023-01-13T22:29:09.968Z,27.21
2023-01-13T22:31:40.655Z,27.23
2023-01-13T22:34:13.615Z,27.21
2023-01-13T22:36:44.459Z,27.24
2023-01-13T22:39:14.753Z,27.25
2023-01-13T22:41:53.745Z,27.25
2023-01-13T22:44:25.120Z,27.25
2023-01-13T22:46:55.749Z,27.23
2023-01-13T22:49:26.606Z,27.21
2023-01-13T22:51:57.197Z,27.21
2023-01-13T22:54:27.629Z,27.21
2023-01-13T22:56:58.045Z,27.15
2023-01-13T22:59:29.107Z,27.15
2023-01-13T23:02:00.529Z,27.09
2023-01-13T23:04:34.086Z,27.11
2023-01-13T23:07:04.762Z,27.14
2023-01-13T23:09:39.281Z,27.08
2023-01-13T23:12:09.995Z,27.11
2023-01-13T23:14:40.600Z,27.13
2023-01-13T23:17:13.941Z,27.09
2023-01-13T23:19:44.907Z,27.06
2023-01-13T23:22:15.579Z,27.10
2023-01-13T23:24:46.445Z,27.06
2023-01-13T23:27:17.003Z,27.10
2023-01-13T23:29:47.582Z,26.97
2023-01-13T23:32:18.121Z,27.05
2023-01-13T23:34:48.721Z,27.02
2023-01-13T23:37:19.627Z,26.98
2023-01-13T23:39:53.744Z,26.99
2023-01-13T23:42:27.541Z,27.06
2023-01-13T23:44:57.999Z,26.99
2023-01-13T23:47:30.208Z,27.10
2023-01-13T23:50:00.638Z,27.05
2023-01-13T23:52:31.282Z,27.04
2023-01-13T23:55:02.076Z,27.07
2023-01-13T23:57:33.149Z,27.03
